createdAt,value
2022-11-23T00:01:25.888Z,1.10
2022-11-23T00:03:56.003Z,1.23
2022-11-23T00:06:25.040Z,1.10
2022-11-23T00:08:53.162Z,1.03
2022-11-23T00:11:22.022Z,1.20
2022-11-23T00:13:49.225Z,1.00
2022-11-23T00:16:19.114Z,1.07
2022-11-23T00:18:46.580Z,1.10
2022-11-23T00:21:18.882Z,1.00
2022-11-23T00:23:47.681Z,1.33
2022-11-23T00:26:15.912Z,1.03
2022-11-23T00:28:44.173Z,1.10
2022-11-23T00:31:16.262Z,1.00
2022-11-23T00:33:44.257Z,1.07
2022-11-23T00:36:14.589Z,1.00
2022-11-23T00:38:43.578Z,1.37
2022-11-23T00:41:17.658Z,1.10
2022-11-23T00:43:45.731Z,1.20
2022-11-23T00:46:21.646Z,1.30
2022-11-23T00:48:50.916Z,1.43
2022-11-23T00:51:24.862Z,1.50
2022-11-23T00:53:52.820Z,1.50
2022-11-23T00:56:20.701Z,1.20
2022-11-23T00:58:49.811Z,1.53
2022-11-23T01:01:19.512Z,1.43
2022-11-23T01:03:49.470Z,1.07
2022-11-23T01:06:22.079Z,1.30
2022-11-23T01:08:58.605Z,1.20
2022-11-23T01:11:29.441Z,1.40
2022-11-23T01:13:56.880Z,1.33
2022-11-23T01:16:32.749Z,1.20
2022-11-23T01:19:02.482Z,0.93
2022-11-23T01:21:30.770Z,1.50
2022-11-23T01:23:58.254Z,1.30
2022-11-23T01:26:25.839Z,1.47
2022-11-23T01:28:52.991Z,1.00
2022-11-23T01:31:25.196Z,1.10
2022-11-23T01:33:57.468Z,1.43
2022-11-23T01:36:31.541Z,1.20
2022-11-23T01:39:00.752Z,1.27
2022-11-23T01:41:40.340Z,1.17
2022-11-23T01:44:24.049Z,1.43
2022-11-23T01:46:56.305Z,1.10
2022-11-23T01:49:24.511Z,1.40
2022-11-23T01:51:54.948Z,1.00
2022-11-23T01:54:30.577Z,1.13
2022-11-23T01:57:11.020Z,1.30
2022-11-23T01:59:38.669Z,1.30
2022-11-23T02:02:07.920Z,1.17
2022-11-23T02:04:39.551Z,1.37
2022-11-23T02:07:10.434Z,1.20
2022-11-23T02:09:38.233Z,1.57
2022-11-23T02:12:11.525Z,1.13
2022-11-23T02:14:39.282Z,1.20
2022-11-23T02:17:06.866Z,1.27
2022-11-23T02:19:54.913Z,1.10
2022-11-23T02:22:51.864Z,1.07
2022-11-23T02:25:33.759Z,1.17
2022-11-23T02:28:02.321Z,1.07
2022-11-23T02:30:32.553Z,1.13
2022-11-23T02:32:59.656Z,1.43
2022-11-23T02:35:26.731Z,1.30
2022-11-23T02:37:54.039Z,1.20
2022-11-23T02:40:39.325Z,1.43
2022-11-23T02:43:06.663Z,1.27
2022-11-23T02:45:53.817Z,1.20
2022-11-23T02:48:24.286Z,1.20
2022-11-23T02:50:51.489Z,1.10
2022-11-23T02:53:19.092Z,1.37
2022-11-23T02:55:46.460Z,1.33
2022-11-23T02:58:13.605Z,1.40
2022-11-23T03:00:42.307Z,1.40
2022-11-23T03:03:09.510Z,1.37
2022-11-23T03:05:37.109Z,1.20
2022-11-23T03:08:06.538Z,1.30
2022-11-23T03:10:34.649Z,1.37
2022-11-23T03:13:02.063Z,1.30
2022-11-23T03:15:33.260Z,1.50
2022-11-23T03:18:03.067Z,1.07
2022-11-23T03:20:31.092Z,1.27
2022-11-23T03:22:59.492Z,1.37
2022-11-23T03:25:27.040Z,1.10
2022-11-23T03:27:56.460Z,1.30
2022-11-23T03:30:24.029Z,1.03
2022-11-23T03:32:51.571Z,1.13
2022-11-23T03:35:19.711Z,1.40
2022-11-23T03:38:07.392Z,1.20
2022-11-23T03:40:34.572Z,1.30
2022-11-23T03:43:22.825Z,1.07
2022-11-23T03:45:49.981Z,1.07
2022-11-23T03:48:17.788Z,1.00
2022-11-23T03:50:45.580Z,0.90
2022-11-23T03:53:14.153Z,1.20
2022-11-23T03:55:41.437Z,1.03
2022-11-23T03:58:08.453Z,1.30
2022-11-23T04:00:37.093Z,1.27
2022-11-23T04:03:04.695Z,1.20
2022-11-23T04:06:10.422Z,1.00
2022-11-23T04:09:01.745Z,0.70
2022-11-23T04:11:48.270Z,0.80
2022-11-23T04:14:15.480Z,0.93
2022-11-23T04:16:43.291Z,0.90
2022-11-23T04:19:12.029Z,1.23
2022-11-23T04:21:39.312Z,1.37
2022-11-23T04:24:06.938Z,1.10
2022-11-23T04:26:36.290Z,0.90
2022-11-23T04:29:03.472Z,0.93
2022-11-23T04:31:32.852Z,1.00
2022-11-23T04:34:13.340Z,1.03
2022-11-23T04:36:40.961Z,1.00
2022-11-23T04:39:10.446Z,0.93
2022-11-23T04:41:46.246Z,1.27
2022-11-23T04:44:13.331Z,1.10
2022-11-23T04:46:42.273Z,0.90
2022-11-23T04:49:13.411Z,1.00
2022-11-23T04:51:40.795Z,0.70
2022-11-23T04:54:08.524Z,1.03
2022-11-23T04:56:43.552Z,0.97
2022-11-23T04:59:10.749Z,1.13
2022-11-23T05:01:38.421Z,1.00
2022-11-23T05:04:28.455Z,1.10
2022-11-23T05:06:56.186Z,1.10
2022-11-23T05:09:24.508Z,1.23
2022-11-23T05:12:14.884Z,1.23
2022-11-23T05:14:43.217Z,1.13
2022-11-23T05:17:12.068Z,1.20
2022-11-23T05:19:42.887Z,1.23
2022-11-23T05:22:10.066Z,1.30
2022-11-23T05:24:40.369Z,1.07
2022-11-23T05:27:11.291Z,1.10
2022-11-23T05:29:39.460Z,1.40
2022-11-23T05:32:07.836Z,1.27
2022-11-23T05:34:35.338Z,1.40
2022-11-23T05:37:04.361Z,1.40
2022-11-23T05:39:32.325Z,1.00
2022-11-23T05:42:00.960Z,1.50
2022-11-23T05:44:33.482Z,1.20
2022-11-23T05:47:00.821Z,1.10
2022-11-23T05:49:32.123Z,1.20
2022-11-23T05:52:00.750Z,1.43
2022-11-23T05:54:29.500Z,1.10
2022-11-23T05:57:09.955Z,1.50
2022-11-23T05:59:40.172Z,1.20
2022-11-23T06:02:09.632Z,1.07
2022-11-23T06:04:37.359Z,0.93
2022-11-23T06:07:07.927Z,1.10
2022-11-23T06:09:49.292Z,1.30
2022-11-23T06:12:16.809Z,1.20
2022-11-23T06:14:44.834Z,1.33
2022-11-23T06:17:15.359Z,1.20
2022-11-23T06:19:48.397Z,1.23
2022-11-23T06:22:15.850Z,1.40
2022-11-23T06:24:51.705Z,1.40
2022-11-23T06:27:37.532Z,1.67
2022-11-23T06:30:14.748Z,1.47
2022-11-23T06:32:42.560Z,1.60
2022-11-23T06:35:10.487Z,1.43
2022-11-23T06:37:40.570Z,1.33
2022-11-23T06:40:08.657Z,1.37
2022-11-23T06:42:40.039Z,1.37
2022-11-23T06:45:25.503Z,1.53
2022-11-23T06:47:56.854Z,1.47
2022-11-23T06:50:24.921Z,1.83
2022-11-23T06:52:56.704Z,1.67
2022-11-23T06:55:34.678Z,1.53
2022-11-23T06:58:01.951Z,1.53
2022-11-23T07:00:29.552Z,1.47
2022-11-23T07:02:56.825Z,1.30
2022-11-23T07:05:25.321Z,1.50
2022-11-23T07:07:53.037Z,1.47
2022-11-23T07:10:26.221Z,1.60
2022-11-23T07:13:07.519Z,1.50
2022-11-23T07:15:37.525Z,1.60
2022-11-23T07:18:06.620Z,1.17
2022-11-23T07:20:35.994Z,1.27
2022-11-23T07:23:07.329Z,1.27
2022-11-23T07:25:37.062Z,1.33
2022-11-23T07:28:06.672Z,1.30
2022-11-23T07:30:35.621Z,1.30
2022-11-23T07:33:10.128Z,1.30
2022-11-23T07:35:40.723Z,1.10
2022-11-23T07:38:09.385Z,1.03
2022-11-23T07:40:38.821Z,1.30
2022-11-23T07:43:11.082Z,1.23
2022-11-23T07:45:38.830Z,1.13
2022-11-23T07:48:10.035Z,1.50
2022-11-23T07:50:39.490Z,1.50
2022-11-23T07:53:08.266Z,1.10
2022-11-23T07:55:35.436Z,1.30
2022-11-23T07:58:03.007Z,1.20
2022-11-23T08:00:30.500Z,1.10
2022-11-23T08:05:48.970Z,1.33
2022-11-23T08:08:16.420Z,1.20
2022-11-23T08:10:48.410Z,1.00
2022-11-23T08:13:17.651Z,1.10
2022-11-23T08:15:47.587Z,1.43
2022-11-23T08:18:19.467Z,1.20
2022-11-23T08:20:47.112Z,1.20
2022-11-23T08:23:14.390Z,1.20
2022-11-23T08:25:42.225Z,1.30
2022-11-23T08:28:09.772Z,1.37
2022-11-23T08:30:37.514Z,1.17
2022-11-23T08:33:06.478Z,0.93
2022-11-23T08:35:35.689Z,1.23
2022-11-23T08:38:03.899Z,1.07
2022-11-23T08:40:31.188Z,1.00
2022-11-23T08:42:58.549Z,1.27
2022-11-23T08:45:26.387Z,1.30
2022-11-23T08:47:54.281Z,1.17
2022-11-23T08:50:22.074Z,1.13
2022-11-23T08:52:55.497Z,1.07
2022-11-23T08:55:22.729Z,1.20
2022-11-23T08:57:50.589Z,1.17
2022-11-23T09:00:18.136Z,1.40
2022-11-23T09:02:45.942Z,1.37
2022-11-23T09:05:13.491Z,1.20
2022-11-23T09:07:40.983Z,1.30
2022-11-23T09:10:16.554Z,1.10
2022-11-23T09:12:48.090Z,1.20
2022-11-23T09:15:15.756Z,1.20
2022-11-23T09:17:43.365Z,0.93
2022-11-23T09:20:12.217Z,1.27
2022-11-23T09:22:39.514Z,0.93
2022-11-23T09:25:07.432Z,1.53
2022-11-23T09:27:34.961Z,1.10
2022-11-23T09:30:02.689Z,1.10
2022-11-23T09:32:30.003Z,1.10
2022-11-23T09:34:57.679Z,1.40
2022-11-23T09:37:25.039Z,1.07
2022-11-23T09:39:52.251Z,1.17
2022-11-23T09:42:22.632Z,1.20
2022-11-23T09:45:26.692Z,1.00
2022-11-23T09:48:09.921Z,0.97
2022-11-23T09:50:56.764Z,1.00
2022-11-23T09:53:53.827Z,1.10
2022-11-23T09:56:25.867Z,1.00
2022-11-23T09:58:56.552Z,1.00
2022-11-23T10:01:25.397Z,1.00
2022-11-23T10:03:53.023Z,0.70
2022-11-23T10:06:31.810Z,1.00
2022-11-23T10:09:01.930Z,0.73
2022-11-23T10:11:49.817Z,0.70
2022-11-23T10:14:38.733Z,0.80
2022-11-23T10:17:42.974Z,0.83
2022-11-23T10:20:34.390Z,0.60
2022-11-23T10:23:03.415Z,0.70
2022-11-23T10:25:41.976Z,0.73
2022-11-23T10:28:15.248Z,0.80
2022-11-23T10:30:43.906Z,0.57
2022-11-23T10:33:11.111Z,0.60
2022-11-23T10:35:38.878Z,0.60
2022-11-23T10:38:19.568Z,0.57
2022-11-23T10:40:55.936Z,0.77
2022-11-23T10:43:33.383Z,0.77
2022-11-23T10:46:32.874Z,0.80
2022-11-23T10:49:11.406Z,0.60
2022-11-23T10:51:40.440Z,0.70
2022-11-23T10:54:21.171Z,0.70
2022-11-23T10:56:50.627Z,0.70
2022-11-23T10:59:32.753Z,0.70
2022-11-23T11:02:22.882Z,0.70
2022-11-23T11:04:57.335Z,0.60
2022-11-23T11:07:31.156Z,0.60
2022-11-23T11:10:02.152Z,0.63
2022-11-23T11:12:33.602Z,0.60
2022-11-23T11:15:11.256Z,0.53
2022-11-23T11:17:42.608Z,0.90
2022-11-23T11:20:35.746Z,0.70
2022-11-23T11:23:18.464Z,0.80
2022-11-23T11:25:49.361Z,0.87
2022-11-23T11:28:41.139Z,0.60
2022-11-23T11:31:28.762Z,0.70
2022-11-23T11:34:24.807Z,0.90
2022-11-23T11:37:01.834Z,0.60
2022-11-23T11:39:40.115Z,0.53
2022-11-23T11:42:14.712Z,0.70
2022-11-23T11:44:46.836Z,0.60
2022-11-23T11:47:21.892Z,0.93
2022-11-23T11:49:50.743Z,0.50
2022-11-23T11:52:25.304Z,0.70
2022-11-23T11:55:14.853Z,0.60
2022-11-23T11:57:47.833Z,0.60
2022-11-23T12:00:19.644Z,0.80
2022-11-23T12:02:56.291Z,0.60
2022-11-23T12:05:49.364Z,0.57
2022-11-23T12:08:36.176Z,0.67
2022-11-23T12:11:04.957Z,0.70
2022-11-23T12:13:37.359Z,0.40
2022-11-23T12:16:13.443Z,0.73
2022-11-23T12:19:20.417Z,0.40
2022-11-23T12:22:24.989Z,0.70
2022-11-23T12:25:11.748Z,0.60
2022-11-23T12:28:05.030Z,0.70
2022-11-23T12:30:38.070Z,0.50
2022-11-23T12:33:27.132Z,0.53
2022-11-23T12:36:31.272Z,0.40
2022-11-23T12:39:10.804Z,0.60
2022-11-23T12:42:00.560Z,0.57
2022-11-23T12:44:36.347Z,0.50
2022-11-23T12:47:17.860Z,0.70
2022-11-23T12:50:25.999Z,0.70
2022-11-23T12:53:21.416Z,0.50
2022-11-23T12:56:17.495Z,0.50
2022-11-23T12:58:47.681Z,0.70
2022-11-23T13:01:39.303Z,0.57
2022-11-23T13:04:30.322Z,0.80
2022-11-23T13:07:28.866Z,0.83
2022-11-23T13:10:11.158Z,0.77
2022-11-23T13:12:43.540Z,0.70
2022-11-23T13:15:43.336Z,0.73
2022-11-23T13:18:41.191Z,0.67
2022-11-23T13:21:41.164Z,0.90
2022-11-23T13:24:33.539Z,0.63
2022-11-23T13:27:18.333Z,0.83
2022-11-23T13:29:52.620Z,0.70
2022-11-23T13:32:41.071Z,1.00
2022-11-23T13:35:35.562Z,0.70
2022-11-23T13:38:10.629Z,0.60
2022-11-23T13:40:51.576Z,0.60
2022-11-23T13:43:26.812Z,0.50
2022-11-23T13:46:30.232Z,0.80
2022-11-23T13:49:05.003Z,0.60
2022-11-23T13:51:36.167Z,0.63
2022-11-23T13:54:26.806Z,0.57
2022-11-23T13:57:05.416Z,0.50
2022-11-23T13:59:35.087Z,0.87
2022-11-23T14:02:08.573Z,0.50
2022-11-23T14:04:41.426Z,0.50
2022-11-23T14:07:09.715Z,0.50
2022-11-23T14:10:27.831Z,0.60
2022-11-23T14:13:10.062Z,0.67
2022-11-23T14:15:42.910Z,0.63
2022-11-23T14:18:17.757Z,0.80
2022-11-23T14:21:03.990Z,0.40
2022-11-23T14:23:51.151Z,0.50
2022-11-23T14:26:43.868Z,0.50
2022-11-23T14:29:42.245Z,0.60
2022-11-23T14:32:30.346Z,0.67
2022-11-23T14:35:16.425Z,0.40
2022-11-23T14:38:17.470Z,0.40
2022-11-23T14:41:16.167Z,0.47
2022-11-23T14:43:49.021Z,0.57
2022-11-23T14:46:20.939Z,0.60
2022-11-23T14:48:51.162Z,0.60
2022-11-23T14:51:24.359Z,0.60
2022-11-23T14:54:02.245Z,0.80
2022-11-23T14:56:41.521Z,0.73
2022-11-23T14:59:34.009Z,0.80
2022-11-23T15:02:04.597Z,0.83
2022-11-23T15:04:35.893Z,0.67
2022-11-23T15:07:36.061Z,0.90
2022-11-23T15:10:47.373Z,0.50
2022-11-23T15:13:28.407Z,0.60
2022-11-23T15:15:57.502Z,0.60
2022-11-23T15:18:35.543Z,0.60
2022-11-23T15:21:07.536Z,0.60
2022-11-23T15:23:38.899Z,0.67
2022-11-23T15:26:28.506Z,0.50
2022-11-23T15:29:01.143Z,0.60
2022-11-23T15:31:36.733Z,0.50
2022-11-23T15:34:14.215Z,0.57
2022-11-23T15:36:43.250Z,0.57
2022-11-23T15:39:20.134Z,0.70
2022-11-23T15:41:47.614Z,0.50
2022-11-23T15:44:21.465Z,0.70
2022-11-23T15:46:50.210Z,0.40
2022-11-23T15:49:19.218Z,0.60
2022-11-23T15:51:47.536Z,0.63
2022-11-23T15:54:20.813Z,0.80
2022-11-23T15:56:50.645Z,0.70
2022-11-23T16:00:10.469Z,0.60
2022-11-23T16:02:40.437Z,0.80
2022-11-23T16:05:16.647Z,0.70
2022-11-23T16:07:56.531Z,0.80
2022-11-23T16:10:26.577Z,0.80
2022-11-23T16:13:02.934Z,0.67
2022-11-23T16:15:39.260Z,0.87
2022-11-23T16:18:18.430Z,0.90
2022-11-23T16:20:49.156Z,0.90
2022-11-23T16:23:22.774Z,0.83
2022-11-23T16:26:03.855Z,0.97
2022-11-23T16:28:33.942Z,0.60
2022-11-23T16:31:02.223Z,0.70
2022-11-23T16:33:30.655Z,0.67
2022-11-23T16:35:58.105Z,1.10
2022-11-23T16:38:26.248Z,0.80
2022-11-23T16:40:53.831Z,0.90
2022-11-23T16:43:24.867Z,0.90
2022-11-23T16:45:52.369Z,0.77
2022-11-23T16:48:25.945Z,1.10
2022-11-23T16:50:54.586Z,0.93
2022-11-23T16:53:22.178Z,0.80
2022-11-23T16:55:57.006Z,0.87
2022-11-23T16:58:26.925Z,0.90
2022-11-23T17:00:59.576Z,0.80
2022-11-23T17:03:27.048Z,0.77
2022-11-23T17:05:54.468Z,1.00
2022-11-23T17:08:23.833Z,0.80
2022-11-23T17:10:51.856Z,1.27
2022-11-23T17:13:25.713Z,0.80
2022-11-23T17:15:53.369Z,0.90
2022-11-23T17:18:22.247Z,0.90
2022-11-23T17:20:49.587Z,1.00
2022-11-23T17:23:16.823Z,0.63
2022-11-23T17:25:44.216Z,0.83
2022-11-23T17:28:16.251Z,1.07
2022-11-23T17:30:46.658Z,1.13
2022-11-23T17:33:14.199Z,0.90
2022-11-23T17:35:41.828Z,1.10
2022-11-23T17:38:17.645Z,0.87
2022-11-23T17:40:44.771Z,0.90
2022-11-23T17:43:15.547Z,0.90
2022-11-23T17:45:44.389Z,0.73
2022-11-23T17:48:16.129Z,0.97
2022-11-23T17:50:43.267Z,1.10
2022-11-23T17:53:10.841Z,1.00
2022-11-23T17:55:38.511Z,1.10
2022-11-23T17:58:06.879Z,1.07
2022-11-23T18:00:35.747Z,1.27
2022-11-23T18:03:02.841Z,1.30
2022-11-23T18:05:30.293Z,1.27
2022-11-23T18:07:57.558Z,1.60
2022-11-23T18:10:24.906Z,1.60
2022-11-23T18:12:52.504Z,1.43
2022-11-23T18:15:19.679Z,1.90
2022-11-23T18:17:46.938Z,2.20
2022-11-23T18:20:14.238Z,2.20
2022-11-23T18:22:41.233Z,1.70
2022-11-23T18:25:11.467Z,1.97
2022-11-23T18:27:39.023Z,1.73
2022-11-23T18:30:06.796Z,2.17
2022-11-23T18:32:34.186Z,2.00
2022-11-23T18:35:01.496Z,2.00
2022-11-23T18:37:28.852Z,1.87
2022-11-23T18:39:56.866Z,2.00
2022-11-23T18:42:24.510Z,1.70
2022-11-23T18:44:51.849Z,1.83
2022-11-23T18:47:21.076Z,1.77
2022-11-23T18:49:48.344Z,1.70
2022-11-23T18:52:17.385Z,1.87
2022-11-23T18:54:44.718Z,1.80
2022-11-23T18:57:16.675Z,2.27
2022-11-23T18:59:59.699Z,2.00
2022-11-23T19:02:27.083Z,2.20
2022-11-23T19:04:54.300Z,1.93
2022-11-23T19:07:26.655Z,2.17
2022-11-23T19:09:54.647Z,2.07
2022-11-23T19:12:22.385Z,2.47
2022-11-23T19:14:50.099Z,2.73
2022-11-23T19:17:17.661Z,2.40
2022-11-23T19:19:44.820Z,2.60
2022-11-23T19:22:12.191Z,2.53
2022-11-23T19:24:40.490Z,2.70
2022-11-23T19:27:08.097Z,2.33
2022-11-23T19:29:35.560Z,2.80
2022-11-23T19:32:03.063Z,2.60
2022-11-23T19:34:30.318Z,2.53
2022-11-23T19:36:57.585Z,2.53
2022-11-23T19:39:25.325Z,2.77
2022-11-23T19:41:52.687Z,2.57
2022-11-23T19:44:20.003Z,2.67
2022-11-23T19:46:47.760Z,2.30
2022-11-23T19:49:15.208Z,2.17
2022-11-23T19:51:42.537Z,2.57
2022-11-23T19:54:10.189Z,2.73
2022-11-23T19:56:37.698Z,2.30
2022-11-23T19:59:05.227Z,2.50
2022-11-23T20:01:32.861Z,2.50
2022-11-23T20:04:09.369Z,2.77
2022-11-23T20:06:39.716Z,2.83
2022-11-23T20:09:09.697Z,2.40
2022-11-23T20:11:39.352Z,2.80
2022-11-23T20:14:07.542Z,2.70
2022-11-23T20:16:34.905Z,2.60
2022-11-23T20:19:06.075Z,2.93
2022-11-23T20:21:34.551Z,2.57
2022-11-23T20:24:07.814Z,2.00
2022-11-23T20:26:38.963Z,2.67
2022-11-23T20:29:07.420Z,2.13
2022-11-23T20:31:35.612Z,2.03
2022-11-23T20:34:07.114Z,2.17
2022-11-23T20:36:38.147Z,1.70
2022-11-23T20:39:07.712Z,1.90
2022-11-23T20:41:37.400Z,1.80
2022-11-23T20:44:11.610Z,1.37
2022-11-23T20:47:01.801Z,1.67
2022-11-23T20:49:26.721Z,1.43
2022-11-23T20:51:54.203Z,1.73
2022-11-23T20:54:21.514Z,1.40
2022-11-23T20:56:49.193Z,1.50
2022-11-23T20:59:16.461Z,1.30
2022-11-23T21:01:43.813Z,1.60
2022-11-23T21:04:11.326Z,1.60
2022-11-23T21:06:39.811Z,1.33
2022-11-23T21:09:09.551Z,1.60
2022-11-23T21:12:15.893Z,1.63
2022-11-23T21:14:43.519Z,1.53
2022-11-23T21:17:10.852Z,1.63
2022-11-23T21:19:42.311Z,1.53
2022-11-23T21:22:14.728Z,2.00
2022-11-23T21:24:42.335Z,2.20
2022-11-23T21:27:13.350Z,1.77
2022-11-23T21:29:40.897Z,2.20
2022-11-23T21:32:14.926Z,1.93
2022-11-23T21:34:45.272Z,2.07
2022-11-23T21:37:13.277Z,1.87
2022-11-23T21:39:41.706Z,1.70
2022-11-23T21:42:09.451Z,1.80
2022-11-23T21:44:36.777Z,2.00
2022-11-23T21:47:04.570Z,2.30
2022-11-23T21:49:32.112Z,2.30
2022-11-23T21:52:02.507Z,2.17
2022-11-23T21:54:32.558Z,2.10
2022-11-23T21:57:00.076Z,2.07
2022-11-23T21:59:28.605Z,2.37
2022-11-23T22:02:00.651Z,2.93
2022-11-23T22:04:28.336Z,2.33
2022-11-23T22:06:55.605Z,2.80
2022-11-23T22:09:23.079Z,3.07
2022-11-23T22:11:50.553Z,3.10
2022-11-23T22:14:19.845Z,2.93
2022-11-23T22:16:50.810Z,3.00
2022-11-23T22:19:19.776Z,2.60
2022-11-23T22:21:47.360Z,3.00
2022-11-23T22:24:17.226Z,3.00
2022-11-23T22:26:46.573Z,2.80
2022-11-23T22:29:14.237Z,2.77
2022-11-23T22:31:41.706Z,2.80
2022-11-23T22:34:12.342Z,2.50
2022-11-23T22:36:39.840Z,2.87
2022-11-23T22:39:08.097Z,2.80
2022-11-23T22:41:38.869Z,2.10
2022-11-23T22:44:08.711Z,2.40
2022-11-23T22:46:36.999Z,2.70
2022-11-23T22:49:05.794Z,2.20
2022-11-23T22:51:33.100Z,2.10
2022-11-23T22:54:01.201Z,2.43
2022-11-23T22:56:30.946Z,2.40
2022-11-23T22:58:58.972Z,2.40
2022-11-23T23:01:28.899Z,2.63
2022-11-23T23:03:58.213Z,2.43
2022-11-23T23:06:28.700Z,2.90
2022-11-23T23:09:00.327Z,2.53
2022-11-23T23:11:32.258Z,2.03
2022-11-23T23:13:59.721Z,2.13
2022-11-23T23:16:27.539Z,2.17
2022-11-23T23:18:57.333Z,2.17
2022-11-23T23:21:27.000Z,1.87
2022-11-23T23:23:57.678Z,1.90
2022-11-23T23:26:26.429Z,2.03
2022-11-23T23:28:56.189Z,1.93
2022-11-23T23:31:24.368Z,2.27
2022-11-23T23:33:53.804Z,2.57
2022-11-23T23:36:22.901Z,2.50
2022-11-23T23:38:51.101Z,2.40
2022-11-23T23:41:18.627Z,2.67
2022-11-23T23:43:48.357Z,2.50
2022-11-23T23:46:15.942Z,2.57
2022-11-23T23:48:43.387Z,2.47
2022-11-23T23:51:13.425Z,2.17
2022-11-23T23:53:41.246Z,2.07
2022-11-23T23:56:13.390Z,2.40
2022-11-23T23:58:40.665Z,2.40
